Pahrump, Nevada Weather observations

Data are for observation ending at time listed.
 Day   Time    Ave.   Ave.  Ave.  Vector   Max.   Stn.    Total    Solar   Ave.  
  of    of     Air    Rel.  Wind   Wind    Wind   Baro.  Precip.   Rad.    Soil  
Year   Day     Temp.  Hum.  Speed  Dir.    Gust   Pres.                    Temp. 
2014   (PST)    F      %     mph   deg.    mph     mb.     in.     W/m2     F   
------------------------------------------------------------------------------
 209    8:20   87.9    35    1.9   267      5.2   928.9    0.00     270    89.8
 209    8:30   88.3    34    1.6   256      4.9   928.9    0.00     248    90.0
 209    8:40   89.1    32    1.9   254      4.9   928.9    0.00     277    90.2
 209    8:50   89.3    31    1.6   229      4.3   928.9    0.00     389    90.4
 209    9:00   90.9    29    1.8   262      5.1   928.9    0.00     403    90.6
 209    9:10   90.9    29    2.3   212      4.4   929.1    0.00     499    90.7
 209    9:20   90.6    33    4.0   151      6.1   929.2    0.00     476    90.9
 209    9:30   90.5    31    3.4   160      6.0   929.4    0.00     812    91.1
 209    9:40   93.0    28    2.4   120      6.9   929.5    0.00     787    91.3
 209    9:50   94.3    27    0.8   271      4.7   929.7    0.00     638    91.6
 209   10:00   94.1    25    2.4   211      6.6   929.8    0.00     641    92.0
 209   10:10   94.9    25    2.2   235      7.5   929.9    0.00     582    92.3
 209   10:20   94.2    26    2.7   234      6.7   929.9    0.00     493    92.7
 209   10:30   94.0    26    3.3   214      8.6   929.9    0.00     809    93.0
 209   10:40   94.5    26    4.8   193      8.8   929.8    0.00     851    93.3
 209   10:50   92.9    26    4.3   172     10.2   929.9    0.00     483    93.6
 209   11:00   92.7    27    4.9   171     10.0   929.8    0.00     429    93.9
 209   11:10   92.5    27    4.3   176     10.4   929.6    0.00     679    94.1
 209   11:20   94.4    26    2.7   224      6.4   929.4    0.00     573    94.3
 209   11:30   94.2    25    2.9   216      6.8   929.4    0.00     529    94.5
 209   11:40   94.6    25    1.2   140      4.3   929.4    0.00     485    94.7
 209   11:50   95.3    25    2.5   271      7.3   929.3    0.00     534    94.9
 209   12:00   96.0    24    2.2   264      6.1   929.2    0.00     649    95.0
 209   12:10   96.0    24    4.9   305     13.8   929.1    0.00     696    95.2
 209   12:20   95.5    25    5.6   303     11.8   929.1    0.00     915    95.3
 209   12:30   96.6    24    4.7   296     13.1   929.0    0.00    1020    95.6
 209   12:40   95.4    25    5.9   319     11.9   928.8    0.00     259    95.8
 209   12:50   93.1    26    7.2   328     13.7   928.5    0.00     210    96.0
 209   13:00   93.1    26    3.4   165      8.5   928.6    0.00     177    96.3
 209   13:10   92.4    27    7.7   136     12.6   928.4    0.00     162    96.5
 209   13:20   91.8    28    8.3   112     15.4   928.1    0.00      56    96.5
 209   13:30   91.3    29    5.0   144      9.9   928.2    0.00      47    96.5
 209   13:40   86.4    42    6.7   293     18.0   928.2    0.00      78    96.4
 209   13:50   81.5    52   11.1   312     19.2   927.9    0.00     139    96.2
 209   14:00   81.1    52    8.9   333     15.1   927.7    0.00     187    96.0
 209   14:10   81.4    53    5.2   353      9.6   927.4    0.00     237    95.8
 209   14:20   82.5    52    6.2   332     10.7   927.2    0.00     158    95.6
 209   14:30   81.8    56    6.7   336     10.3   927.3    0.00     159    95.4
 209   14:40   81.5    57    5.6   350      9.5   927.3    0.00     194    95.1
 209   14:50   83.4    48    4.1    18      9.3   927.2    0.00     209    94.9
 209   15:00   85.0    43    5.5    15     11.4   927.1    0.00     235    94.7
 209   15:10   85.7    42    4.7    34     10.3   927.1    0.00     241    94.6
 209   15:20   86.2    41    4.9    20     11.6   927.1    0.00     222    94.5
 209   15:30   86.1    42    4.1    22     10.6   927.0    0.00     204    94.4
 209   15:40   86.8    39    4.5    33     11.0   927.0    0.00     189    94.3
 209   15:50   86.9    37    5.9    42     11.8   926.9    0.00     180    94.2
 209   16:00   87.8    35    4.5    41     11.0   926.8    0.00     176    94.1
 209   16:10   88.4    33    3.2    30      6.9   926.8    0.00     171    94.1
 209   16:20   88.2    36    4.7   353      9.2   926.6    0.00     167    94.0
 209   16:30   87.4    40    3.8   336      6.4   926.5    0.00     162    93.9
 209   16:40   87.3    40    4.7   331      8.3   926.3    0.00     159    93.9
 209   16:50   87.1    41    4.2   326      6.8   926.2    0.00     145    93.8
 209   17:00   86.7    43    3.9   326      6.2   926.2    0.00     128    93.8
 209   17:10   86.7    43    3.0   324      5.1   926.2    0.00     118    93.7
 209   17:20   87.0    43    2.8   310      4.2   926.3    0.00     113    93.7
 209   17:30   87.0    44    1.0   324      2.9   926.3    0.00     107    93.6
 209   17:40   87.3    43    0.7   270      1.9   926.2    0.00      90    93.5
 209   17:50   87.4    39    3.2   182      8.2   926.3    0.00      63    93.4
 209   18:00   87.4    38    4.4   186      9.4   926.4    0.00      43    93.4
 209   18:10   86.7    39    4.9   177      7.4   926.3    0.00      36    93.3
 209   18:20   86.5    42    3.2   242      6.4   926.3    0.00      28    93.2
 209   18:30   85.0    52    3.1   272      9.6   926.4    0.00      19    93.1
 209   18:40   84.1    50    2.3   261      5.4   926.5    0.00       9    93.1
 209   18:50   83.9    50    1.7   260      3.7   926.4    0.00       3    92.9
 209   19:00   83.4    50    0.9   230      1.9   926.4    0.00       2    92.8
 209   19:10   83.3    48    1.2   214      2.4   926.4    0.00       0    92.7
 209   19:20   83.9    45    1.1   125      2.4   926.3    0.00       0    92.6
 209   19:30   84.1    45    1.3    30      2.7   926.2    0.00       0    92.5
 209   19:40   84.4    44    2.0    30      4.3   926.2    0.00       0    92.3
 209   19:50   84.2    45    1.6    39      3.0   926.2    0.00       0    92.2
 209   20:00   84.1    45    1.2    28      2.3   926.3    0.00       0    92.1
 209   20:10   84.1    45    1.2    37      2.8   926.3    0.00       0    92.0
 209   20:20   84.1    46    0.4   257      1.2   926.3    0.00       0    91.8
 209   20:30   83.4    47    1.2   259      2.5   926.4    0.00       0    91.7
 209   20:40   82.3    48    1.0   248      2.0   926.6    0.00       0    91.6
 209   20:50   82.1    47    1.3   265      2.3   926.6    0.00       0    91.5
 209   21:00   82.1    49    1.4   279      3.1   926.7    0.00       0    91.4
 209   21:10   82.0    51    1.1   276      3.3   926.7    0.00       0    91.3
 209   21:20   81.4    53    2.7   282     11.0   926.8    0.00       0    91.1
 209   21:30   80.7    54    7.3   302     13.2   926.9    0.00       0    91.0
 209   21:40   79.4    56    6.2   310     11.3   926.9    0.00       0    90.9
 209   21:50   78.4    57    6.4   317     11.9   926.7    0.00       0    90.8
 209   22:00   77.6    58    5.9   341     10.1   926.7    0.00       0    90.7
 209   22:10   77.5    58    5.4   330      8.7   926.5    0.00       0    90.6
 209   22:20   77.2    58    4.4   333      8.2   926.5    0.00       0    90.5
 209   22:30   77.3    57    4.6   332      7.5   926.4    0.00       0    90.4
 209   22:40   77.3    57    3.8   322      7.2   926.3    0.00       0    90.2
 209   22:50   77.0    58    2.2   316      3.7   926.3    0.00       0    90.1
 209   23:00   76.9    58    1.6   345      3.1   926.2    0.00       0    89.9
 209   23:10   77.1    58    2.4   323      4.1   926.1    0.00       0    89.8
 209   23:20   76.8    59    2.4   304      5.7   926.0    0.00       0    89.7
 209   23:30   75.7    61    3.9   309      5.9   926.0    0.00       0    89.5
 209   23:40   75.3    61    3.4   304      6.2   926.0    0.00       0    89.4
 209   23:50   75.1    61    2.9   309      4.7   926.0    0.00       0    89.3
 210    0:00   74.9    62    3.7   311      5.4   925.9    0.00       0    89.2
 210    0:10   74.8    62    3.5   315      5.7   925.7    0.00       0    89.1
 210    0:20   74.3    63    2.6   343      4.4   925.6    0.00       0    89.0
 210    0:30   74.2    64    0.9     8      2.8   925.6    0.00       0    88.9
 210    0:40   74.7    62    0.2    12      1.4   925.5    0.00       0    88.8
 210    0:50   74.7    63    1.2   323      3.1   925.6    0.00       0    88.6
 210    1:00   74.6    63    1.1   303      3.4   925.6    0.00       0    88.5
 210    1:10   74.0    64    2.7   312      3.8   925.6    0.00       0    88.4
 210    1:20   73.9    64    0.4   309      1.8   925.6    0.00       0    88.3
 210    1:30   74.0    64    0.4   308      1.8   925.5    0.00       0    88.2
 210    1:40   74.1    64    1.7   318      3.1   925.5    0.00       0    88.1
 210    1:50   74.2    63    2.3   320      4.0   925.6    0.00       0    88.0
 210    2:00   74.7    61    1.7   337      2.9   925.6    0.00       0    87.9
 210    2:10   74.8    61    0.9   317      3.1   925.6    0.00       0    87.8
 210    2:20   74.8    61    2.0   312      8.7   925.7    0.00       0    87.7
 210    2:30   74.8    59    3.4   327      7.4   925.6    0.00       0    87.7
 210    2:40   74.8    59    3.3   331      5.8   925.6    0.00       0    87.5
 210    2:50   74.3    60    3.6   338      6.5   925.6    0.00       0    87.5
 210    3:00   74.0    62    3.3   321      5.8   925.6    0.00       0    87.4
 210    3:10   73.8    62    1.4    26      3.9   925.7    0.00       0    87.3
 210    3:20   73.8    62    0.8   319      2.2   925.8    0.00       0    87.2
 210    3:30   73.6    64    1.0   275      2.2   925.9    0.00       0    87.1
 210    3:40   72.9    67    2.1   304      4.0   926.0    0.00       0    87.0
 210    3:50   72.3    70    2.6   352      4.1   926.0    0.00       0    87.0
 210    4:00   72.7    68    0.6    29      2.3   926.0    0.00       0    86.9
 210    4:10   73.5    65    1.5    64      2.3   925.9    0.00       0    86.8
 210    4:20   74.0    63    1.6   108      2.2   925.8    0.00       0    86.7
 210    4:30   74.3    62    0.4    82      1.3   925.8    0.00       0    86.6
 210    4:40   74.2    64    1.2   275      4.2   925.9    0.00       0    86.6
 210    4:50   73.3    67    1.4   276      3.1   925.9    0.00       1    86.5
 210    5:00   72.7    70    1.2   305      2.3   925.9    0.00       4    86.5
 210    5:10   72.5    69    1.2   328      2.6   925.9    0.00      10    86.4
 210    5:20   73.0    67    1.1   337      2.1   925.9    0.00      19    86.4
 210    5:30   73.4    67    0.7    22      1.8   926.0    0.00      32    86.3
 210    5:40   73.5    66    0.5    17      1.6   926.1    0.00      34    86.2
 210    5:50   73.9    65    0.6    42      2.0   926.2    0.00      36    86.2
 210    6:00   74.4    63    0.3    44      1.5   926.3    0.00      58    86.1
 210    6:10   77.1    58    1.2    74      2.3   926.3    0.00     152    86.1
 210    6:20   79.0    53    1.2    58      2.8   926.6    0.00     181    86.0
 210    6:30   79.0    53    1.2    42      2.8   926.9    0.00     210    86.0
 210    6:40   80.4    51    1.3   302      3.2   927.2    0.00     241    86.1
 210    6:50   81.9    48    0.8   293      2.1   927.5    0.00     268    86.2
 210    7:00   82.4    47    1.7   289      4.7   927.8    0.00     304    86.4
 210    7:10   81.6    50    3.8   310      6.6   928.0    0.00     347    86.6
 210    7:20   81.7    49    2.9   309      5.9   928.2    0.00     392    86.9
 210    7:30   83.2    46    2.6   308      6.0   928.4    0.00     517    87.2
 210    7:40   83.5    45    1.0   352      3.3   928.6    0.00     512    87.6
 210    7:50   83.6    43    1.1   339      2.9   928.7    0.00     359    87.9
 210    8:00   85.1    42    1.0   312      4.2   928.7    0.00     477    88.2
 210    8:10   86.1    40    2.5   306      5.5   928.7    0.00     536    88.6

Return to Pahrump, Nevada graphs page.


Western Regional Climate Center,wrcc@dri.edu